sensor_id;sensor_type;location;lat;lon;timestamp;pressure;altitude;pressure_sealevel;temperature;humidity
69836;BME280;57132;51.972;4.450;2022-11-11T00:02:20;102697.63;;;10.10;100.00
69836;BME280;57132;51.972;4.450;2022-11-11T00:04:45;102699.44;;;10.08;100.00
69836;BME280;57132;51.972;4.450;2022-11-11T00:07:10;102698.66;;;10.06;100.00
69836;BME280;57132;51.972;4.450;2022-11-11T00:09:36;102699.44;;;10.08;100.00
69836;BME280;57132;51.972;4.450;2022-11-11T00:12:01;102709.34;;;10.06;100.00
69836;BME280;57132;51.972;4.450;2022-11-11T00:14:26;102710.31;;;10.03;100.00
69836;BME280;57132;51.972;4.450;2022-11-11T00:16:52;102717.44;;;10.03;100.00
69836;BME280;57132;51.972;4.450;2022-11-11T00:19:35;102722.78;;;10.03;100.00
69836;BME280;57132;51.972;4.450;2022-11-11T00:22:22;102724.50;;;10.04;100.00
69836;BME280;57132;51.972;4.450;2022-11-11T00:25:08;102715.56;;;10.05;100.00
69836;BME280;57132;51.972;4.450;2022-11-11T00:27:34;102728.00;;;10.06;100.00
69836;BME280;57132;51.972;4.450;2022-11-11T00:30:00;102713.84;;;10.04;100.00
69836;BME280;57132;51.972;4.450;2022-11-11T00:32:25;102719.09;;;10.05;100.00
69836;BME280;57132;51.972;4.450;2022-11-11T00:34:54;102707.63;;;10.03;100.00
69836;BME280;57132;51.972;4.450;2022-11-11T00:37:39;102712.97;;;10.03;100.00
69836;BME280;57132;51.972;4.450;2022-11-11T00:40:05;102703.25;;;10.02;100.00
69836;BME280;57132;51.972;4.450;2022-11-11T00:42:31;102702.41;;;10.00;100.00
69836;BME280;57132;51.972;4.450;2022-11-11T00:44:56;102707.72;;;10.02;100.00
69836;BME280;57132;51.972;4.450;2022-11-11T00:47:22;102707.72;;;10.02;100.00
69836;BME280;57132;51.972;4.450;2022-11-11T00:50:11;102715.72;;;10.02;100.00
69836;BME280;57132;51.972;4.450;2022-11-11T00:52:56;102714.88;;;10.00;100.00
69836;BME280;57132;51.972;4.450;2022-11-11T00:55:21;102691.06;;;9.95;100.00
69836;BME280;57132;51.972;4.450;2022-11-11T00:57:47;102685.63;;;9.98;100.00
69836;BME280;57132;51.972;4.450;2022-11-11T01:00:13;102687.41;;;9.98;100.00
69836;BME280;57132;51.972;4.450;2022-11-11T01:02:38;102690.00;;;9.99;100.00
69836;BME280;57132;51.972;4.450;2022-11-11T01:05:04;102699.75;;;10.00;100.00
69836;BME280;57132;51.972;4.450;2022-11-11T01:07:29;102689.38;;;9.93;100.00
69836;BME280;57132;51.972;4.450;2022-11-11T01:09:55;102689.38;;;9.93;100.00
69836;BME280;57132;51.972;4.450;2022-11-11T01:12:20;102679.81;;;9.87;100.00
69836;BME280;57132;51.972;4.450;2022-11-11T01:14:45;102683.53;;;9.83;100.00
69836;BME280;57132;51.972;4.450;2022-11-11T01:17:11;102687.13;;;9.82;100.00
69836;BME280;57132;51.972;4.450;2022-11-11T01:19:36;102678.41;;;9.77;100.00
69836;BME280;57132;51.972;4.450;2022-11-11T01:22:02;102677.66;;;9.73;100.00
69836;BME280;57132;51.972;4.450;2022-11-11T01:24:27;102685.81;;;9.70;100.00
69836;BME280;57132;51.972;4.450;2022-11-11T01:26:52;102692.03;;;9.69;100.00
69836;BME280;57132;51.972;4.450;2022-11-11T01:29:18;102693.03;;;9.67;100.00
69836;BME280;57132;51.972;4.450;2022-11-11T01:31:43;102678.03;;;9.64;100.00
69836;BME280;57132;51.972;4.450;2022-11-11T01:34:08;102686.09;;;9.63;100.00
69836;BME280;57132;51.972;4.450;2022-11-11T01:36:34;102677.16;;;9.64;100.00
69836;BME280;57132;51.972;4.450;2022-11-11T01:39:00;102685.16;;;9.64;100.00
69836;BME280;57132;51.972;4.450;2022-11-11T01:41:32;102680.69;;;9.64;100.00
69836;BME280;57132;51.972;4.450;2022-11-11T01:44:51;102678.09;;;9.63;100.00
69836;BME280;57132;51.972;4.450;2022-11-11T01:46:53;102681.72;;;9.60;100.00
69836;BME280;57132;51.972;4.450;2022-11-11T01:59:36;102688.91;;;9.58;100.00
69836;BME280;57132;51.972;4.450;2022-11-11T02:02:14;102692.38;;;9.60;100.00
69836;BME280;57132;51.972;4.450;2022-11-11T02:04:41;102675.41;;;9.63;100.00
69836;BME280;57132;51.972;4.450;2022-11-11T02:07:26;102691.53;;;9.59;100.00
69836;BME280;57132;51.972;4.450;2022-11-11T02:09:53;102674.66;;;9.59;100.00
69836;BME280;57132;51.972;4.450;2022-11-11T02:12:18;102679.13;;;9.58;100.00
69836;BME280;57132;51.972;4.450;2022-11-11T02:15:03;102672.16;;;9.54;100.00
69836;BME280;57132;51.972;4.450;2022-11-11T02:17:30;102681.03;;;9.55;100.00
69836;BME280;57132;51.972;4.450;2022-11-11T02:20:01;102675.75;;;9.53;100.00
69836;BME280;57132;51.972;4.450;2022-11-11T02:22:51;102683.81;;;9.52;100.00
69836;BME280;57132;51.972;4.450;2022-11-11T02:25:21;102673.31;;;9.47;100.00
69836;BME280;57132;51.972;4.450;2022-11-11T02:27:50;102683.16;;;9.45;100.00
69836;BME280;57132;51.972;4.450;2022-11-11T02:30:18;102670.59;;;9.49;100.00
69836;BME280;57132;51.972;4.450;2022-11-11T02:32:45;102675.13;;;9.47;100.00
69836;BME280;57132;51.972;4.450;2022-11-11T02:35:37;102679.69;;;9.43;100.00
69836;BME280;57132;51.972;4.450;2022-11-11T02:38:03;102669.94;;;9.42;100.00
69836;BME280;57132;51.972;4.450;2022-11-11T02:40:47;102683.25;;;9.42;100.00
69836;BME280;57132;51.972;4.450;2022-11-11T02:43:31;102680.72;;;9.39;100.00
69836;BME280;57132;51.972;4.450;2022-11-11T02:45:58;102682.53;;;9.39;100.00
69836;BME280;57132;51.972;4.450;2022-11-11T02:48:24;102686.06;;;9.39;100.00
69836;BME280;57132;51.972;4.450;2022-11-11T02:50:50;102673.69;;;9.36;100.00
69836;BME280;57132;51.972;4.450;2022-11-11T02:53:15;102683.59;;;9.33;100.00
69836;BME280;57132;51.972;4.450;2022-11-11T02:55:41;102677.22;;;9.37;100.00
69836;BME280;57132;51.972;4.450;2022-11-11T02:58:07;102675.59;;;9.33;100.00
69836;BME280;57132;51.972;4.450;2022-11-11T03:00:32;102679.13;;;9.33;100.00
69836;BME280;57132;51.972;4.450;2022-11-11T03:02:58;102675.66;;;9.31;100.00
69836;BME280;57132;51.972;4.450;2022-11-11T03:05:23;102664.25;;;9.28;100.00
69836;BME280;57132;51.972;4.450;2022-11-11T03:07:48;102688.22;;;9.28;100.00
69836;BME280;57132;51.972;4.450;2022-11-11T03:10:14;102705.16;;;9.27;100.00
69836;BME280;57132;51.972;4.450;2022-11-11T03:12:40;102683.06;;;9.23;100.00
69836;BME280;57132;51.972;4.450;2022-11-11T03:15:06;102682.16;;;9.24;100.00
69836;BME280;57132;51.972;4.450;2022-11-11T03:17:31;102686.59;;;9.24;100.00
69836;BME280;57132;51.972;4.450;2022-11-11T03:20:16;102690.94;;;9.26;100.00
69836;BME280;57132;51.972;4.450;2022-11-11T03:23:06;102690.03;;;9.27;100.00
69836;BME280;57132;51.972;4.450;2022-11-11T03:25:33;102687.41;;;9.26;100.00
69836;BME280;57132;51.972;4.450;2022-11-11T03:28:09;102683.94;;;9.24;100.00
69836;BME280;57132;51.972;4.450;2022-11-11T03:30:35;102692.81;;;9.24;100.00
69836;BME280;57132;51.972;4.450;2022-11-11T03:33:01;102690.91;;;9.28;100.00
69836;BME280;57132;51.972;4.450;2022-11-11T03:35:27;102690.03;;;9.27;100.00
69836;BME280;57132;51.972;4.450;2022-11-11T03:37:52;102694.53;;;9.25;100.00
69836;BME280;57132;51.972;4.450;2022-11-11T03:40:36;102682.03;;;9.27;100.00
69836;BME280;57132;51.972;4.450;2022-11-11T03:43:02;102683.84;;;9.27;100.00
69836;BME280;57132;51.972;4.450;2022-11-11T03:45:27;102687.47;;;9.24;100.00
69836;BME280;57132;51.972;4.450;2022-11-11T03:47:52;102685.78;;;9.22;100.00
69836;BME280;57132;51.972;4.450;2022-11-11T03:50:19;102693.72;;;9.23;100.00
69836;BME280;57132;51.972;4.450;2022-11-11T03:52:45;102701.66;;;9.25;100.00
69836;BME280;57132;51.972;4.450;2022-11-11T03:55:10;102703.53;;;9.23;100.00
69836;BME280;57132;51.972;4.450;2022-11-11T03:57:43;102700.03;;;9.21;100.00
69836;BME280;57132;51.972;4.450;2022-11-11T04:00:14;102698.41;;;9.17;100.00
69836;BME280;57132;51.972;4.450;2022-11-11T04:02:40;102703.72;;;9.17;100.00
69836;BME280;57132;51.972;4.450;2022-11-11T04:05:25;102712.66;;;9.16;100.00
69836;BME280;57132;51.972;4.450;2022-11-11T04:08:14;102706.50;;;9.14;100.00
69836;BME280;57132;51.972;4.450;2022-11-11T04:11:02;102716.25;;;9.15;100.00
69836;BME280;57132;51.972;4.450;2022-11-11T04:13:28;102715.31;;;9.16;100.00
69836;BME280;57132;51.972;4.450;2022-11-11T04:16:13;102730.38;;;9.17;100.00
69836;BME280;57132;51.972;4.450;2022-11-11T04:18:39;102713.41;;;9.19;100.00
69836;BME280;57132;51.972;4.450;2022-11-11T04:21:23;102725.03;;;9.17;100.00
69836;BME280;57132;51.972;4.450;2022-11-11T04:24:08;102726.00;;;9.14;100.00
69836;BME280;57132;51.972;4.450;2022-11-11T04:26:53;102717.97;;;9.16;100.00
69836;BME280;57132;51.972;4.450;2022-11-11T04:29:19;102716.34;;;9.11;100.00
69836;BME280;57132;51.972;4.450;2022-11-11T04:34:50;102706.56;;;9.12;100.00
69836;BME280;57132;51.972;4.450;2022-11-11T04:37:17;102695.94;;;9.10;100.00
69836;BME280;57132;51.972;4.450;2022-11-11T04:39:42;102698.59;;;9.10;100.00
69836;BME280;57132;51.972;4.450;2022-11-11T04:42:27;102703.91;;;9.12;100.00
69836;BME280;57132;51.972;4.450;2022-11-11T04:44:53;102685.25;;;9.12;100.00
69836;BME280;57132;51.972;4.450;2022-11-11T04:47:38;102695.91;;;9.12;100.00
69836;BME280;57132;51.972;4.450;2022-11-11T04:50:04;102684.56;;;9.05;100.00
69836;BME280;57132;51.972;4.450;2022-11-11T04:52:29;102697.91;;;9.05;100.00
69836;BME280;57132;51.972;4.450;2022-11-11T04:54:56;102674.84;;;9.04;100.00
69836;BME280;57132;51.972;4.450;2022-11-11T04:57:45;102682.00;;;9.02;100.00
69836;BME280;57132;51.972;4.450;2022-11-11T05:00:16;102680.28;;;9.01;100.00
69836;BME280;57132;51.972;4.450;2022-11-11T05:02:42;102685.84;;;8.95;100.00
69836;BME280;57132;51.972;4.450;2022-11-11T05:05:45;102691.97;;;8.97;100.00
69836;BME280;57132;51.972;4.450;2022-11-11T05:08:30;102685.84;;;8.95;100.00
69836;BME280;57132;51.972;4.450;2022-11-11T05:11:14;102677.94;;;8.92;100.00
69836;BME280;57132;51.972;4.450;2022-11-11T05:13:40;102685.97;;;8.91;100.00
69836;BME280;57132;51.972;4.450;2022-11-11T05:16:27;102681.56;;;8.90;100.00
69836;BME280;57132;51.972;4.450;2022-11-11T05:19:13;102678.03;;;8.89;100.00
69836;BME280;57132;51.972;4.450;2022-11-11T05:22:06;102684.22;;;8.90;100.00
69836;BME280;57132;51.972;4.450;2022-11-11T05:24:33;102691.28;;;8.91;100.00
69836;BME280;57132;51.972;4.450;2022-11-11T05:27:16;102688.69;;;8.89;100.00
69836;BME280;57132;51.972;4.450;2022-11-11T05:29:42;102695.81;;;8.89;100.00
69836;BME280;57132;51.972;4.450;2022-11-11T05:32:07;102695.06;;;8.85;100.00
69836;BME280;57132;51.972;4.450;2022-11-11T05:34:33;102697.72;;;8.85;100.00
69836;BME280;57132;51.972;4.450;2022-11-11T05:36:58;102697.78;;;8.83;100.00
69836;BME280;57132;51.972;4.450;2022-11-11T05:39:24;102709.47;;;8.79;100.00
69836;BME280;57132;51.972;4.450;2022-11-11T05:41:49;102707.69;;;8.78;100.00
69836;BME280;57132;51.972;4.450;2022-11-11T05:44:14;102705.78;;;8.82;100.00
69836;BME280;57132;51.972;4.450;2022-11-11T05:46:40;102705.78;;;8.82;100.00
69836;BME280;57132;51.972;4.450;2022-11-11T05:49:05;102710.25;;;8.81;100.00
69836;BME280;57132;51.972;4.450;2022-11-11T05:51:40;102708.63;;;8.77;100.00
69836;BME280;57132;51.972;4.450;2022-11-11T05:54:05;102712.22;;;8.76;100.00
69836;BME280;57132;51.972;4.450;2022-11-11T05:56:31;102719.19;;;8.79;100.00
69836;BME280;57132;51.972;4.450;2022-11-11T05:58:56;102708.47;;;8.82;100.00
69836;BME280;57132;51.972;4.450;2022-11-11T06:01:21;102719.13;;;8.82;100.00
69836;BME280;57132;51.972;4.450;2022-11-11T06:03:47;102723.53;;;8.83;100.00
69836;BME280;57132;51.972;4.450;2022-11-11T06:06:12;102727.88;;;8.85;100.00
69836;BME280;57132;51.972;4.450;2022-11-11T06:08:38;102725.28;;;8.84;100.00
69836;BME280;57132;51.972;4.450;2022-11-11T06:11:03;102725.19;;;8.87;100.00
69836;BME280;57132;51.972;4.450;2022-11-11T06:13:29;102728.72;;;8.88;100.00
69836;BME280;57132;51.972;4.450;2022-11-11T06:15:55;102721.53;;;8.90;100.00
69836;BME280;57132;51.972;4.450;2022-11-11T06:18:21;102725.91;;;8.91;100.00
69836;BME280;57132;51.972;4.450;2022-11-11T06:20:55;102733.09;;;8.89;100.00
69836;BME280;57132;51.972;4.450;2022-11-11T06:23:22;102729.72;;;8.83;100.00
69836;BME280;57132;51.972;4.450;2022-11-11T06:25:48;102732.50;;;8.80;100.00
69836;BME280;57132;51.972;4.450;2022-11-11T06:28:32;102732.50;;;8.80;100.00
69836;BME280;57132;51.972;4.450;2022-11-11T06:30:57;102745.84;;;8.79;100.00
69836;BME280;57132;51.972;4.450;2022-11-11T06:33:23;102739.63;;;8.78;100.00
69836;BME280;57132;51.972;4.450;2022-11-11T06:35:48;102730.78;;;8.78;100.00
69836;BME280;57132;51.972;4.450;2022-11-11T06:38:14;102740.56;;;8.77;100.00
69836;BME280;57132;51.972;4.450;2022-11-11T06:40:41;102752.09;;;8.78;100.00
69836;BME280;57132;51.972;4.450;2022-11-11T06:43:07;102744.19;;;8.75;100.00
69836;BME280;57132;51.972;4.450;2022-11-11T06:45:32;102732.84;;;8.70;100.00
69836;BME280;57132;51.972;4.450;2022-11-11T06:47:59;102731.03;;;8.70;100.00
69836;BME280;57132;51.972;4.450;2022-11-11T06:50:25;102733.75;;;8.69;100.00
69836;BME280;57132;51.972;4.450;2022-11-11T06:52:51;102740.03;;;8.66;100.00
69836;BME280;57132;51.972;4.450;2022-11-11T06:55:17;102734.88;;;8.61;100.00
69836;BME280;57132;51.972;4.450;2022-11-11T06:57:42;102742.84;;;8.61;100.00
69836;BME280;57132;51.972;4.450;2022-11-11T07:00:09;102747.47;;;8.56;100.00
69836;BME280;57132;51.972;4.450;2022-11-11T07:02:34;102745.59;;;8.58;100.00
69836;BME280;57132;51.972;4.450;2022-11-11T07:05:00;102745.59;;;8.58;100.00
69836;BME280;57132;51.972;4.450;2022-11-11T07:07:26;102734.09;;;8.58;100.00
69836;BME280;57132;51.972;4.450;2022-11-11T07:09:52;102739.50;;;8.55;100.00
69836;BME280;57132;51.972;4.450;2022-11-11T07:12:19;102748.41;;;8.55;100.00
69836;BME280;57132;51.972;4.450;2022-11-11T07:14:45;102744.75;;;8.58;100.00
69836;BME280;57132;51.972;4.450;2022-11-11T07:17:10;102753.72;;;8.55;100.00
69836;BME280;57132;51.972;4.450;2022-11-11T07:19:35;102747.41;;;8.58;100.00
69836;BME280;57132;51.972;4.450;2022-11-11T07:22:01;102754.53;;;8.57;100.00
69836;BME280;57132;51.972;4.450;2022-11-11T07:24:26;102758.03;;;8.59;100.00
69836;BME280;57132;51.972;4.450;2022-11-11T07:26:51;102758.03;;;8.59;100.00
69836;BME280;57132;51.972;4.450;2022-11-11T07:29:17;102762.41;;;8.60;100.00
69836;BME280;57132;51.972;4.450;2022-11-11T07:31:42;102778.41;;;8.59;100.00
69836;BME280;57132;51.972;4.450;2022-11-11T07:34:07;102767.84;;;8.57;100.00
69836;BME280;57132;51.972;4.450;2022-11-11T07:36:33;102769.56;;;8.58;100.00
69836;BME280;57132;51.972;4.450;2022-11-11T07:38:58;102785.59;;;8.57;100.00
69836;BME280;57132;51.972;4.450;2022-11-11T07:41:24;102776.66;;;8.59;100.00
69836;BME280;57132;51.972;4.450;2022-11-11T07:43:49;102780.13;;;8.61;100.00
69836;BME280;57132;51.972;4.450;2022-11-11T07:46:15;102782.78;;;8.61;100.00
69836;BME280;57132;51.972;4.450;2022-11-11T07:48:40;102779.19;;;8.62;100.00
69836;BME280;57132;51.972;4.450;2022-11-11T07:51:06;102778.31;;;8.64;100.00
69836;BME280;57132;51.972;4.450;2022-11-11T07:53:31;102782.63;;;8.66;100.00
69836;BME280;57132;51.972;4.450;2022-11-11T07:55:57;102781.84;;;8.64;100.00
69836;BME280;57132;51.972;4.450;2022-11-11T07:58:22;102792.38;;;8.67;100.00
69836;BME280;57132;51.972;4.450;2022-11-11T08:00:47;102781.75;;;8.67;100.00
69836;BME280;57132;51.972;4.450;2022-11-11T08:03:14;102794.16;;;8.67;100.00
69836;BME280;57132;51.972;4.450;2022-11-11T08:05:39;102792.38;;;8.67;100.00
69836;BME280;57132;51.972;4.450;2022-11-11T08:08:06;102795.72;;;8.74;100.00
69836;BME280;57132;51.972;4.450;2022-11-11T08:10:32;102800.16;;;8.73;100.00
69836;BME280;57132;51.972;4.450;2022-11-11T08:12:57;102817.78;;;8.77;100.00
69836;BME280;57132;51.972;4.450;2022-11-11T08:15:41;102807.97;;;8.79;100.00
69836;BME280;57132;51.972;4.450;2022-11-11T08:18:07;102803.44;;;8.83;100.00
69836;BME280;57132;51.972;4.450;2022-11-11T08:20:33;102821.00;;;8.89;100.00
69836;BME280;57132;51.972;4.450;2022-11-11T08:22:58;102822.78;;;8.88;100.00
69836;BME280;57132;51.972;4.450;2022-11-11T08:25:24;102828.03;;;8.90;100.00
69836;BME280;57132;51.972;4.450;2022-11-11T08:28:00;102829.03;;;8.87;100.00
69836;BME280;57132;51.972;4.450;2022-11-11T08:30:26;102826.25;;;8.90;100.00
69836;BME280;57132;51.972;4.450;2022-11-11T08:32:59;102832.41;;;8.92;100.00
69836;BME280;57132;51.972;4.450;2022-11-11T08:35:25;102841.22;;;8.94;100.00
69836;BME280;57132;51.972;4.450;2022-11-11T08:37:51;102842.97;;;8.95;100.00
69836;BME280;57132;51.972;4.450;2022-11-11T08:40:16;102861.47;;;9.00;100.00
69836;BME280;57132;51.972;4.450;2022-11-11T08:42:42;102847.13;;;9.04;100.00
69836;BME280;57132;51.972;4.450;2022-11-11T08:45:08;102843.47;;;9.06;100.00
69836;BME280;57132;51.972;4.450;2022-11-11T08:47:36;102846.06;;;9.09;100.00
69836;BME280;57132;51.972;4.450;2022-11-11T08:50:03;102854.97;;;9.08;100.00
69836;BME280;57132;51.972;4.450;2022-11-11T08:52:29;102843.28;;;9.13;100.00
69836;BME280;57132;51.972;4.450;2022-11-11T08:54:54;102871.66;;;9.14;100.00
69836;BME280;57132;51.972;4.450;2022-11-11T08:57:20;102843.97;;;9.19;100.00
69836;BME280;57132;51.972;4.450;2022-11-11T08:59:45;102837.47;;;9.28;100.00
69836;BME280;57132;51.972;4.450;2022-11-11T09:02:11;102847.25;;;9.27;100.00
69836;BME280;57132;51.972;4.450;2022-11-11T09:04:38;102842.53;;;9.35;100.00
69836;BME280;57132;51.972;4.450;2022-11-11T09:07:04;102848.63;;;9.39;100.00
69836;BME280;57132;51.972;4.450;2022-11-11T09:09:29;102847.00;;;9.35;100.00
69836;BME280;57132;51.972;4.450;2022-11-11T09:11:55;102853.22;;;9.34;100.00
69836;BME280;57132;51.972;4.450;2022-11-11T09:14:20;102873.84;;;9.29;100.00
69836;BME280;57132;51.972;4.450;2022-11-11T09:16:45;102860.66;;;9.24;100.00
69836;BME280;57132;51.972;4.450;2022-11-11T09:19:11;102862.25;;;9.30;100.00
69836;BME280;57132;51.972;4.450;2022-11-11T09:21:36;102881.53;;;9.38;100.00
69836;BME280;57132;51.972;4.450;2022-11-11T09:24:02;102875.91;;;9.47;100.00
69836;BME280;57132;51.972;4.450;2022-11-11T09:26:27;102868.78;;;9.48;100.00
69836;BME280;57132;51.972;4.450;2022-11-11T09:28:52;102878.59;;;9.46;100.00
69836;BME280;57132;51.972;4.450;2022-11-11T09:31:18;102869.84;;;9.42;100.00
69836;BME280;57132;51.972;4.450;2022-11-11T09:33:44;102885.22;;;9.34;100.00
69836;BME280;57132;51.972;4.450;2022-11-11T09:36:09;102876.44;;;9.30;100.00
69836;BME280;57132;51.972;4.450;2022-11-11T09:38:35;102877.28;;;9.32;100.00
69836;BME280;57132;51.972;4.450;2022-11-11T09:41:22;102904.03;;;9.29;100.00
69836;BME280;57132;51.972;4.450;2022-11-11T09:43:56;102877.47;;;9.26;100.00
69836;BME280;57132;51.972;4.450;2022-11-11T09:46:34;102881.75;;;9.32;100.00
69836;BME280;57132;51.972;4.450;2022-11-11T09:49:22;102890.59;;;9.32;100.00
69836;BME280;57132;51.972;4.450;2022-11-11T09:54:36;102901.00;;;9.40;100.00
69836;BME280;57132;51.972;4.450;2022-11-11T09:57:10;102899.03;;;9.47;100.00
69836;BME280;57132;51.972;4.450;2022-11-11T09:59:48;102898.19;;;9.45;100.00
69836;BME280;57132;51.972;4.450;2022-11-11T10:02:28;102912.28;;;9.48;100.00
69836;BME280;57132;51.972;4.450;2022-11-11T10:04:59;102907.91;;;9.47;100.00
69836;BME280;57132;51.972;4.450;2022-11-11T10:07:40;102922.44;;;9.37;100.00
69836;BME280;57132;51.972;4.450;2022-11-11T10:10:23;102916.13;;;9.40;100.00
69836;BME280;57132;51.972;4.450;2022-11-11T10:12:57;102918.91;;;9.36;100.00
69836;BME280;57132;51.972;4.450;2022-11-11T10:15:26;102918.81;;;9.40;100.00
69836;BME280;57132;51.972;4.450;2022-11-11T10:20:40;102920.47;;;9.42;100.00
69836;BME280;57132;51.972;4.450;2022-11-11T10:23:13;102924.78;;;9.46;100.00
69836;BME280;57132;51.972;4.450;2022-11-11T10:25:46;102923.97;;;9.44;100.00
69836;BME280;57132;51.972;4.450;2022-11-11T10:28:18;102933.69;;;9.47;100.00
69836;BME280;57132;51.972;4.450;2022-11-11T10:30:45;102929.88;;;9.54;100.00
69836;BME280;57132;51.972;4.450;2022-11-11T10:33:17;102929.75;;;9.58;100.00
69836;BME280;57132;51.972;4.450;2022-11-11T10:35:44;102928.75;;;9.61;100.00
69836;BME280;57132;51.972;4.450;2022-11-11T10:40:51;102934.25;;;9.56;100.00
69836;BME280;57132;51.972;4.450;2022-11-11T10:43:28;102936.84;;;9.58;100.00
69836;BME280;57132;51.972;4.450;2022-11-11T10:51:02;102948.91;;;9.70;100.00
69836;BME280;57132;51.972;4.450;2022-11-11T10:54:05;102932.09;;;9.68;100.00
69836;BME280;57132;51.972;4.450;2022-11-11T10:56:42;102937.94;;;9.79;100.00
69836;BME280;57132;51.972;4.450;2022-11-11T11:01:59;102925.56;;;9.76;100.00
69836;BME280;57132;51.972;4.450;2022-11-11T11:07:33;102934.28;;;9.81;100.00
69836;BME280;57132;51.972;4.450;2022-11-11T11:10:11;102925.84;;;9.94;100.00
69836;BME280;57132;51.972;4.450;2022-11-11T11:15:20;102934.09;;;10.13;100.00
69836;BME280;57132;51.972;4.450;2022-11-11T11:18:02;102925.56;;;10.03;100.00
69836;BME280;57132;51.972;4.450;2022-11-11T11:20:28;102923.69;;;10.05;100.00
69836;BME280;57132;51.972;4.450;2022-11-11T11:22:55;102928.00;;;10.09;100.00
69836;BME280;57132;51.972;4.450;2022-11-11T11:25:26;102929.97;;;10.04;100.00
69836;BME280;57132;51.972;4.450;2022-11-11T11:30:32;102928.56;;;10.19;100.00
69836;BME280;57132;51.972;4.450;2022-11-11T11:33:00;102924.50;;;10.33;100.00
69836;BME280;57132;51.972;4.450;2022-11-11T11:35:39;102927.75;;;10.42;100.00
69836;BME280;57132;51.972;4.450;2022-11-11T11:38:06;102904.63;;;10.41;100.00
69836;BME280;57132;51.972;4.450;2022-11-11T11:40:51;102905.47;;;10.66;100.00
69836;BME280;57132;51.972;4.450;2022-11-11T11:43:32;102917.81;;;10.92;100.00
69836;BME280;57132;51.972;4.450;2022-11-11T11:46:00;102916.06;;;10.91;100.00
69836;BME280;57132;51.972;4.450;2022-11-11T11:51:23;102909.56;;;10.98;100.00
69836;BME280;57132;51.972;4.450;2022-11-11T11:56:46;102907.28;;;11.33;100.00
69836;BME280;57132;51.972;4.450;2022-11-11T11:59:26;102904.31;;;11.41;100.00
69836;BME280;57132;51.972;4.450;2022-11-11T12:13:06;102901.63;;;11.41;100.00
69836;BME280;57132;51.972;4.450;2022-11-11T12:15:42;102892.47;;;11.46;100.00
69836;BME280;57132;51.972;4.450;2022-11-11T12:21:14;102888.31;;;11.60;100.00
69836;BME280;57132;51.972;4.450;2022-11-11T12:31:39;102894.22;;;11.90;100.00
69836;BME280;57132;51.972;4.450;2022-11-11T12:40:23;102884.06;;;12.94;95.66
69836;BME280;57132;51.972;4.450;2022-11-11T12:50:59;102886.75;;;12.94;92.74
69836;BME280;57132;51.972;4.450;2022-11-11T12:53:35;102890.09;;;12.80;93.98
69836;BME280;57132;51.972;4.450;2022-11-11T12:58:56;102890.38;;;12.74;94.27
69836;BME280;57132;51.972;4.450;2022-11-11T13:04:34;102893.28;;;12.88;94.06
69836;BME280;57132;51.972;4.450;2022-11-11T13:15:16;102888.66;;;13.11;91.98
69836;BME280;57132;51.972;4.450;2022-11-11T13:17:41;102885.78;;;13.14;90.63
69836;BME280;57132;51.972;4.450;2022-11-11T13:22:57;102888.94;;;13.23;91.00
69836;BME280;57132;51.972;4.450;2022-11-11T13:25:29;102876.78;;;13.34;89.94
69836;BME280;57132;51.972;4.450;2022-11-11T13:28:01;102890.00;;;13.56;88.85
69836;BME280;57132;51.972;4.450;2022-11-11T13:33:16;102884.66;;;13.90;86.42
69836;BME280;57132;51.972;4.450;2022-11-11T13:35:55;102894.50;;;13.55;86.75
69836;BME280;57132;51.972;4.450;2022-11-11T13:38:34;102897.25;;;13.53;87.33
69836;BME280;57132;51.972;4.450;2022-11-11T13:41:03;102900.69;;;13.38;88.11
69836;BME280;57132;51.972;4.450;2022-11-11T13:45:59;102900.06;;;13.33;89.44
69836;BME280;57132;51.972;4.450;2022-11-11T13:48:32;102895.63;;;13.51;89.40
69836;BME280;57132;51.972;4.450;2022-11-11T13:51:11;102895.84;;;13.46;88.63
69836;BME280;57132;51.972;4.450;2022-11-11T13:53:39;102893.94;;;13.31;88.70
69836;BME280;57132;51.972;4.450;2022-11-11T13:56:05;102889.88;;;13.03;89.88
69836;BME280;57132;51.972;4.450;2022-11-11T13:58:35;102884.03;;;12.76;91.38
69836;BME280;57132;51.972;4.450;2022-11-11T14:01:05;102877.66;;;12.60;92.51
69836;BME280;57132;51.972;4.450;2022-11-11T14:03:58;102886.53;;;12.42;94.40
69836;BME280;57132;51.972;4.450;2022-11-11T14:08:53;102888.81;;;12.30;95.62
69836;BME280;57132;51.972;4.450;2022-11-11T14:17:12;102871.94;;;11.89;96.97
69836;BME280;57132;51.972;4.450;2022-11-11T14:19:39;102879.72;;;11.73;98.20
69836;BME280;57132;51.972;4.450;2022-11-11T14:22:28;102876.50;;;11.65;99.08
69836;BME280;57132;51.972;4.450;2022-11-11T14:24:54;102878.31;;;11.65;100.00
69836;BME280;57132;51.972;4.450;2022-11-11T14:27:27;102880.06;;;11.66;100.00
69836;BME280;57132;51.972;4.450;2022-11-11T14:29:55;102894.63;;;11.58;100.00
69836;BME280;57132;51.972;4.450;2022-11-11T14:35:32;102888.09;;;11.66;99.66
69836;BME280;57132;51.972;4.450;2022-11-11T14:38:18;102881.78;;;11.67;99.57
69836;BME280;57132;51.972;4.450;2022-11-11T14:40:46;102871.38;;;11.61;99.51
69836;BME280;57132;51.972;4.450;2022-11-11T14:46:03;102878.03;;;11.50;99.17
69836;BME280;57132;51.972;4.450;2022-11-11T14:54:04;102881.97;;;11.42;100.00
69836;BME280;57132;51.972;4.450;2022-11-11T14:56:31;102885.38;;;11.45;100.00
69836;BME280;57132;51.972;4.450;2022-11-11T14:59:04;102884.53;;;11.45;100.00
69836;BME280;57132;51.972;4.450;2022-11-11T15:01:30;102886.44;;;11.41;100.00
69836;BME280;57132;51.972;4.450;2022-11-11T15:04:00;102886.69;;;11.35;100.00
69836;BME280;57132;51.972;4.450;2022-11-11T15:06:38;102877.16;;;11.28;100.00